createdAt,value
2022-09-14T00:01:45.989Z,16.10
2022-09-14T00:04:19.119Z,11.20
2022-09-14T00:06:49.275Z,13.68
2022-09-14T00:09:20.282Z,14.77
2022-09-14T00:11:50.745Z,15.65
2022-09-14T00:14:20.200Z,12.57
2022-09-14T00:16:49.754Z,12.48
2022-09-14T00:19:24.037Z,14.65
2022-09-14T00:21:53.994Z,11.43
2022-09-14T00:24:23.150Z,11.75
2022-09-14T00:26:52.042Z,15.77
2022-09-14T00:29:20.858Z,15.02
2022-09-14T00:31:50.108Z,10.35
2022-09-14T00:34:20.649Z,20.15
2022-09-14T00:36:50.889Z,10.68
2022-09-14T00:39:21.853Z,14.02
2022-09-14T00:41:52.234Z,14.25
2022-09-14T00:45:12.757Z,12.88
2022-09-14T00:47:42.296Z,15.82
2022-09-14T00:50:13.108Z,14.95
2022-09-14T00:52:45.138Z,12.50
2022-09-14T00:55:16.456Z,13.32
2022-09-14T00:57:48.195Z,14.18
2022-09-14T01:00:19.443Z,15.13
2022-09-14T01:02:48.306Z,12.88
2022-09-14T01:05:19.144Z,17.27
2022-09-14T01:08:05.004Z,11.10
2022-09-14T01:10:46.322Z,17.95
2022-09-14T01:13:29.031Z,13.32
2022-09-14T01:16:05.119Z,14.10
2022-09-14T01:18:39.153Z,16.23
2022-09-14T01:21:13.857Z,14.30
2022-09-14T01:23:50.546Z,14.25
2022-09-14T01:26:59.209Z,14.48
2022-09-14T01:29:34.999Z,14.38
2022-09-14T01:32:09.080Z,14.68
2022-09-14T01:34:44.644Z,13.90
2022-09-14T01:37:16.796Z,13.93
2022-09-14T01:39:48.484Z,9.63
2022-09-14T01:42:19.986Z,15.18
2022-09-14T01:44:54.959Z,13.23
2022-09-14T01:47:29.059Z,12.80
2022-09-14T01:50:04.340Z,18.67
2022-09-14T01:52:37.916Z,14.32
2022-09-14T01:55:12.516Z,13.65
2022-09-14T01:57:45.352Z,15.02
2022-09-14T02:00:19.257Z,13.18
2022-09-14T02:02:51.169Z,12.43
2022-09-14T02:05:24.762Z,13.13
2022-09-14T02:07:53.593Z,11.48
2022-09-14T02:10:22.875Z,17.73
2022-09-14T02:12:51.630Z,13.32
2022-09-14T02:15:22.302Z,14.38
2022-09-14T02:17:51.366Z,11.75
2022-09-14T02:20:24.676Z,13.73
2022-09-14T02:22:53.861Z,14.20
2022-09-14T02:25:23.151Z,12.68
2022-09-14T02:27:52.661Z,13.27
2022-09-14T02:30:23.324Z,11.75
2022-09-14T02:33:04.343Z,13.80
2022-09-14T02:35:41.634Z,11.15
2022-09-14T02:38:19.464Z,12.60
2022-09-14T02:40:54.523Z,8.32
2022-09-14T02:43:32.555Z,11.85
2022-09-14T02:46:09.239Z,10.07
2022-09-14T02:48:44.758Z,11.15
2022-09-14T02:51:20.342Z,11.38
2022-09-14T02:53:55.553Z,15.88
2022-09-14T02:56:24.324Z,8.93
2022-09-14T02:58:52.985Z,17.27
2022-09-14T03:01:24.971Z,8.52
2022-09-14T03:03:53.906Z,11.20
2022-09-14T03:06:23.181Z,10.85
2022-09-14T03:08:52.006Z,9.23
2022-09-14T03:11:21.003Z,7.97
2022-09-14T03:13:49.763Z,10.48
2022-09-14T03:16:19.544Z,8.90
2022-09-14T03:18:49.909Z,12.50
2022-09-14T03:21:19.706Z,7.57
2022-09-14T03:23:50.498Z,10.75
2022-09-14T03:26:21.952Z,10.80
2022-09-14T03:28:52.815Z,6.90
2022-09-14T03:31:22.692Z,11.95
2022-09-14T03:33:56.869Z,10.45
2022-09-14T03:36:27.241Z,9.77
2022-09-14T03:38:57.555Z,10.60
2022-09-14T03:41:26.847Z,14.02
2022-09-14T03:43:55.523Z,12.23
2022-09-14T03:46:26.289Z,9.25
2022-09-14T03:48:57.418Z,10.25
2022-09-14T03:51:25.951Z,10.07
2022-09-14T03:53:54.930Z,8.27
2022-09-14T03:56:25.071Z,9.13
2022-09-14T03:58:53.829Z,8.63
2022-09-14T04:01:23.944Z,7.72
2022-09-14T04:03:53.479Z,11.30
2022-09-14T04:06:23.505Z,10.48
2022-09-14T04:08:52.043Z,9.18
2022-09-14T04:11:23.724Z,6.57
2022-09-14T04:13:54.057Z,7.25
2022-09-14T04:16:23.638Z,7.65
2022-09-14T04:18:53.234Z,8.27
2022-09-14T04:21:26.843Z,11.63
2022-09-14T04:24:14.008Z,7.72
2022-09-14T04:26:44.265Z,12.77
2022-09-14T04:29:14.721Z,5.68
2022-09-14T04:31:43.508Z,9.27
2022-09-14T04:34:14.332Z,8.35
2022-09-14T04:36:44.848Z,7.38
2022-09-14T04:39:15.316Z,8.27
2022-09-14T04:41:44.537Z,8.50
2022-09-14T04:44:13.892Z,8.75
2022-09-14T04:46:46.500Z,8.38
2022-09-14T04:49:16.746Z,7.97
2022-09-14T04:51:46.863Z,9.75
2022-09-14T04:54:18.565Z,11.27
2022-09-14T04:56:47.462Z,9.05
2022-09-14T04:59:16.570Z,9.77
2022-09-14T05:01:47.680Z,8.90
2022-09-14T05:04:17.824Z,10.30
2022-09-14T05:06:47.936Z,11.27
2022-09-14T05:09:19.698Z,17.23
2022-09-14T05:11:49.713Z,12.30
2022-09-14T05:14:18.711Z,10.40
2022-09-14T05:16:48.101Z,13.00
2022-09-14T05:19:18.351Z,15.13
2022-09-14T05:21:48.967Z,9.60
2022-09-14T05:24:19.901Z,9.25
2022-09-14T05:26:49.047Z,13.43
2022-09-14T05:29:19.316Z,8.73
2022-09-14T05:31:48.740Z,11.10
2022-09-14T05:34:20.167Z,13.88
2022-09-14T05:36:50.137Z,9.52
2022-09-14T05:39:23.135Z,9.50
2022-09-14T05:41:52.689Z,12.48
2022-09-14T05:44:21.575Z,9.02
2022-09-14T05:46:50.493Z,7.30
2022-09-14T05:49:19.195Z,9.13
2022-09-14T05:51:49.480Z,9.45
2022-09-14T05:54:18.268Z,8.93
2022-09-14T05:56:46.957Z,9.07
2022-09-14T05:59:15.857Z,9.27
2022-09-14T06:01:44.485Z,13.00
2022-09-14T06:04:13.756Z,8.95
2022-09-14T06:06:52.123Z,6.22
2022-09-14T06:09:33.295Z,12.13
2022-09-14T06:12:02.354Z,3.97
2022-09-14T06:14:30.939Z,7.40
2022-09-14T06:16:59.723Z,6.90
2022-09-14T06:19:28.623Z,8.85
2022-09-14T06:21:57.268Z,3.42
2022-09-14T06:24:26.197Z,6.60
2022-09-14T06:26:56.318Z,6.88
2022-09-14T06:29:24.914Z,5.47
2022-09-14T06:31:55.499Z,5.45
2022-09-14T06:34:24.696Z,6.97
2022-09-14T06:36:53.405Z,5.38
2022-09-14T06:39:22.018Z,5.38
2022-09-14T06:41:52.010Z,3.33
2022-09-14T06:44:22.101Z,2.47
2022-09-14T06:46:50.767Z,3.45
2022-09-14T06:49:23.108Z,9.27
2022-09-14T06:51:54.748Z,3.55
2022-09-14T06:54:23.943Z,1.80
2022-09-14T06:56:52.539Z,1.90
2022-09-14T06:59:22.620Z,3.67
2022-09-14T07:01:51.651Z,4.95
2022-09-14T07:04:20.404Z,5.60
2022-09-14T07:06:50.825Z,2.03
2022-09-14T07:09:21.075Z,2.60
2022-09-14T07:11:50.354Z,1.58
2022-09-14T07:14:20.245Z,3.42
2022-09-14T07:16:50.786Z,2.25
2022-09-14T07:19:19.522Z,2.55
2022-09-14T07:21:50.215Z,3.10
2022-09-14T07:24:19.309Z,4.43
2022-09-14T07:26:48.175Z,5.38
2022-09-14T07:29:18.659Z,4.10
2022-09-14T07:31:51.206Z,2.45
2022-09-14T07:34:20.474Z,1.40
2022-09-14T07:36:49.636Z,3.05
2022-09-14T07:39:19.106Z,2.65
2022-09-14T07:41:48.999Z,2.75
2022-09-14T07:44:18.958Z,5.10
2022-09-14T07:46:50.697Z,5.50
2022-09-14T07:49:19.898Z,1.23
2022-09-14T07:51:48.703Z,5.28
2022-09-14T07:54:19.152Z,1.45
2022-09-14T07:56:49.413Z,2.28
2022-09-14T07:59:35.496Z,8.10
2022-09-14T08:02:08.175Z,1.27
2022-09-14T08:04:38.274Z,2.05
2022-09-14T08:07:09.263Z,10.35
2022-09-14T08:09:39.317Z,1.25
2022-09-14T08:12:08.494Z,1.95
2022-09-14T08:14:37.549Z,5.20
2022-09-14T08:17:07.717Z,5.03
2022-09-14T08:19:37.585Z,1.55
2022-09-14T08:22:06.823Z,4.15
2022-09-14T08:24:35.403Z,5.50
2022-09-14T08:27:04.601Z,6.50
2022-09-14T08:29:33.188Z,2.75
2022-09-14T08:32:01.803Z,2.97
2022-09-14T08:34:31.976Z,4.63
2022-09-14T08:37:00.468Z,7.32
2022-09-14T08:39:29.130Z,2.05
2022-09-14T08:42:00.272Z,7.40
2022-09-14T08:44:31.439Z,1.55
2022-09-14T08:47:03.010Z,3.60
2022-09-14T08:49:47.989Z,1.30
2022-09-14T08:52:25.391Z,0.68
2022-09-14T08:54:56.404Z,2.72
2022-09-14T08:57:33.498Z,4.78
2022-09-14T09:00:10.497Z,4.25
2022-09-14T09:03:05.230Z,1.13
2022-09-14T09:05:43.814Z,1.60
2022-09-14T09:08:20.949Z,3.00
2022-09-14T09:10:51.224Z,1.20
2022-09-14T09:13:24.950Z,0.75
2022-09-14T09:15:56.466Z,7.60
2022-09-14T09:18:42.845Z,14.18
2022-09-14T09:21:17.028Z,7.93
2022-09-14T09:23:46.561Z,1.42
2022-09-14T09:26:21.807Z,4.60
2022-09-14T09:28:53.386Z,4.32
2022-09-14T09:31:38.049Z,2.00
2022-09-14T09:34:07.599Z,2.13
2022-09-14T09:36:40.498Z,1.10
2022-09-14T09:39:09.753Z,1.35
2022-09-14T09:41:47.477Z,10.15
2022-09-14T09:44:16.792Z,2.22
2022-09-14T09:46:49.758Z,1.33
2022-09-14T09:49:22.222Z,2.47
2022-09-14T09:51:53.915Z,3.03
2022-09-14T09:54:30.324Z,2.20
2022-09-14T09:57:01.736Z,0.95
2022-09-14T09:59:35.398Z,1.25
2022-09-14T10:02:28.148Z,0.50
2022-09-14T10:04:59.868Z,1.75
2022-09-14T10:07:32.754Z,3.28
2022-09-14T10:10:03.707Z,0.75
2022-09-14T10:12:32.659Z,0.52
2022-09-14T10:15:18.012Z,0.70
2022-09-14T10:18:08.651Z,0.95
2022-09-14T10:20:39.005Z,0.43
2022-09-14T10:23:24.718Z,1.48
2022-09-14T10:25:54.877Z,1.85
2022-09-14T10:28:27.548Z,1.75
2022-09-14T10:31:02.265Z,0.98
2022-09-14T10:33:32.589Z,1.67
2022-09-14T10:36:14.173Z,2.22
2022-09-14T10:38:52.951Z,3.28
2022-09-14T10:41:29.273Z,0.63
2022-09-14T10:44:27.954Z,3.60
2022-09-14T10:47:11.597Z,0.85
2022-09-14T10:49:53.021Z,2.47
2022-09-14T10:52:30.178Z,5.20
2022-09-14T10:55:32.109Z,1.60
2022-09-14T10:58:18.027Z,2.17
2022-09-14T11:00:57.526Z,3.55
2022-09-14T11:03:43.994Z,0.75
2022-09-14T11:06:27.380Z,1.02
2022-09-14T11:09:00.757Z,2.72
2022-09-14T11:11:46.149Z,1.52
2022-09-14T11:14:35.417Z,1.08
2022-09-14T11:17:33.723Z,1.63
2022-09-14T11:20:11.676Z,2.13
2022-09-14T11:22:51.118Z,2.20
2022-09-14T11:25:23.179Z,2.10
2022-09-14T11:27:58.034Z,0.68
2022-09-14T11:30:35.030Z,1.10
2022-09-14T11:33:09.016Z,1.27
2022-09-14T11:35:43.473Z,1.23
2022-09-14T11:38:16.951Z,3.75
2022-09-14T11:40:50.765Z,1.13
2022-09-14T11:43:27.317Z,2.10
2022-09-14T11:46:01.844Z,1.35
2022-09-14T11:48:43.175Z,6.65
2022-09-14T11:51:16.512Z,3.15
2022-09-14T11:53:46.942Z,1.00
2022-09-14T11:56:26.875Z,2.90
2022-09-14T11:58:59.718Z,3.65
2022-09-14T12:01:35.735Z,1.88
2022-09-14T12:04:11.187Z,1.83
2022-09-14T12:07:00.607Z,4.90
2022-09-14T12:09:44.015Z,3.10
2022-09-14T12:12:33.149Z,2.92
2022-09-14T12:15:12.958Z,2.47
2022-09-14T12:17:42.706Z,3.78
2022-09-14T12:20:44.154Z,0.98
2022-09-14T12:23:43.032Z,1.27
2022-09-14T12:26:35.091Z,2.35
2022-09-14T12:29:27.571Z,2.22
2022-09-14T12:32:32.676Z,1.63
2022-09-14T12:35:34.166Z,2.35
2022-09-14T12:39:05.027Z,3.70
2022-09-14T12:42:13.109Z,1.15
2022-09-14T12:44:44.542Z,2.03
2022-09-14T12:47:49.889Z,1.70
2022-09-14T12:50:20.839Z,1.83
2022-09-14T12:53:10.605Z,3.63
2022-09-14T12:56:05.344Z,3.92
2022-09-14T12:59:00.041Z,2.35
2022-09-14T13:01:40.468Z,3.38
2022-09-14T13:04:15.494Z,2.83
2022-09-14T13:06:47.589Z,4.45
2022-09-14T13:09:22.732Z,2.63
2022-09-14T13:11:57.405Z,2.45
2022-09-14T13:14:30.766Z,1.55
2022-09-14T13:17:03.443Z,1.58
2022-09-14T13:19:33.921Z,1.55
2022-09-14T13:22:04.190Z,2.88
2022-09-14T13:24:38.897Z,2.47
2022-09-14T13:27:19.658Z,3.97
2022-09-14T13:29:48.959Z,1.17
2022-09-14T13:32:22.448Z,1.92
2022-09-14T13:34:52.716Z,6.00
2022-09-14T13:37:22.600Z,5.28
2022-09-14T13:39:53.414Z,2.63
2022-09-14T13:42:23.082Z,2.17
2022-09-14T13:44:53.163Z,1.15
2022-09-14T13:47:25.796Z,6.88
2022-09-14T13:49:56.767Z,6.38
2022-09-14T13:52:50.179Z,7.53
2022-09-14T13:55:25.995Z,1.55
2022-09-14T13:58:23.242Z,3.28
2022-09-14T14:01:00.926Z,4.82
2022-09-14T14:03:34.474Z,1.33
2022-09-14T14:06:20.284Z,3.65
2022-09-14T14:08:58.811Z,5.13
2022-09-14T14:11:30.200Z,5.60
2022-09-14T14:14:12.582Z,4.40
2022-09-14T14:16:41.754Z,4.90
2022-09-14T14:19:30.000Z,2.15
2022-09-14T14:22:17.388Z,3.25
2022-09-14T14:25:12.265Z,2.75
2022-09-14T14:27:38.866Z,5.07
2022-09-14T14:30:15.495Z,1.42
2022-09-14T14:32:44.470Z,3.63
2022-09-14T14:35:20.140Z,5.25
2022-09-14T14:37:48.997Z,2.05
2022-09-14T14:40:18.285Z,3.67
2022-09-14T14:42:48.182Z,4.25
2022-09-14T14:45:20.082Z,2.80
2022-09-14T14:47:50.535Z,4.38
2022-09-14T14:50:22.784Z,1.33
2022-09-14T14:52:51.691Z,2.42
2022-09-14T14:55:21.208Z,2.58
2022-09-14T14:57:50.500Z,1.63
2022-09-14T15:00:21.957Z,2.72
2022-09-14T15:02:51.598Z,2.22
2022-09-14T15:05:22.173Z,1.70
2022-09-14T15:07:52.640Z,3.10
2022-09-14T15:10:22.404Z,1.52
2022-09-14T15:12:51.928Z,1.45
2022-09-14T15:15:23.357Z,1.90
2022-09-14T15:17:52.696Z,3.10
2022-09-14T15:20:23.493Z,6.28
2022-09-14T15:22:52.845Z,1.70
2022-09-14T15:25:22.649Z,5.75
2022-09-14T15:27:51.458Z,3.75
2022-09-14T15:30:20.288Z,2.50
2022-09-14T15:32:49.147Z,3.05
2022-09-14T15:35:17.907Z,1.98
2022-09-14T15:37:49.287Z,2.17
2022-09-14T15:40:18.394Z,4.88
2022-09-14T15:42:47.001Z,3.70
2022-09-14T15:45:16.219Z,2.25
2022-09-14T15:47:47.041Z,1.35
2022-09-14T15:50:15.960Z,3.72
2022-09-14T15:52:44.583Z,2.25
2022-09-14T15:55:14.983Z,4.95
2022-09-14T15:57:43.538Z,5.25
2022-09-14T16:00:14.025Z,1.20
2022-09-14T16:02:44.014Z,2.55
2022-09-14T16:05:13.077Z,3.80
2022-09-14T16:07:42.122Z,3.22
2022-09-14T16:10:11.483Z,4.10
2022-09-14T16:12:41.416Z,1.08
2022-09-14T16:15:10.821Z,2.03
2022-09-14T16:17:39.784Z,3.85
2022-09-14T16:20:10.597Z,1.80
2022-09-14T16:22:39.179Z,3.00
2022-09-14T16:25:08.247Z,2.42
2022-09-14T16:27:36.925Z,5.95
2022-09-14T16:30:08.898Z,2.13
2022-09-14T16:32:37.766Z,5.50
2022-09-14T16:35:08.348Z,1.88
2022-09-14T16:37:37.251Z,1.60
2022-09-14T16:40:06.822Z,3.40
2022-09-14T16:42:35.379Z,1.77
2022-09-14T16:45:04.024Z,4.40
2022-09-14T16:47:34.813Z,2.47
2022-09-14T16:50:03.441Z,1.95
2022-09-14T16:52:32.714Z,5.63
2022-09-14T16:55:01.652Z,3.83
2022-09-14T16:57:30.368Z,7.22
2022-09-14T16:59:58.803Z,1.00
2022-09-14T17:02:27.616Z,3.20
2022-09-14T17:04:58.044Z,1.60
2022-09-14T17:07:26.941Z,1.95
2022-09-14T17:09:55.832Z,1.88
2022-09-14T17:12:24.237Z,3.00
2022-09-14T17:14:53.819Z,2.67
2022-09-14T17:17:22.566Z,1.40
2022-09-14T17:19:51.370Z,5.10
2022-09-14T17:22:21.366Z,2.42
2022-09-14T17:24:50.160Z,2.92
2022-09-14T17:27:18.952Z,3.20
2022-09-14T17:29:48.628Z,8.15
2022-09-14T17:32:17.746Z,4.72
2022-09-14T17:34:46.930Z,1.90
2022-09-14T17:37:15.692Z,3.22
2022-09-14T17:39:45.893Z,1.45
2022-09-14T17:42:14.460Z,6.18
2022-09-14T17:44:43.800Z,6.20
2022-09-14T17:47:12.647Z,6.10
2022-09-14T17:49:41.409Z,8.63
2022-09-14T17:52:10.024Z,2.63
2022-09-14T17:54:39.028Z,3.13
2022-09-14T17:57:09.016Z,5.05
2022-09-14T17:59:37.767Z,3.88
2022-09-14T18:02:06.778Z,3.88
2022-09-14T18:04:35.350Z,3.28
2022-09-14T18:07:05.809Z,5.00
2022-09-14T18:09:34.550Z,5.18
2022-09-14T18:12:03.589Z,8.32
2022-09-14T18:14:33.713Z,4.28
2022-09-14T18:17:02.631Z,7.13
2022-09-14T18:19:31.370Z,2.15
2022-09-14T18:22:00.128Z,3.60
2022-09-14T18:24:28.863Z,4.60
2022-09-14T18:26:57.503Z,4.05
2022-09-14T18:29:26.873Z,4.80
2022-09-14T18:31:57.503Z,6.60
2022-09-14T18:34:26.786Z,4.43
2022-09-14T18:36:55.370Z,4.05
2022-09-14T18:39:24.220Z,4.30
2022-09-14T18:41:53.845Z,3.95
2022-09-14T18:44:22.733Z,9.50
2022-09-14T18:46:52.474Z,5.40
2022-09-14T18:49:22.560Z,3.42
2022-09-14T18:51:51.559Z,3.63
2022-09-14T18:54:24.224Z,2.45
2022-09-14T18:56:55.907Z,3.63
2022-09-14T18:59:24.977Z,5.60
2022-09-14T19:01:53.578Z,3.25
2022-09-14T19:04:23.760Z,3.78
2022-09-14T19:06:52.585Z,2.67
2022-09-14T19:09:21.276Z,5.63
2022-09-14T19:11:49.923Z,3.08
2022-09-14T19:14:20.665Z,4.85
2022-09-14T19:16:50.427Z,2.45
2022-09-14T19:19:19.248Z,2.65
2022-09-14T19:21:49.610Z,4.40
2022-09-14T19:24:19.004Z,3.13
2022-09-14T19:26:52.921Z,7.68
2022-09-14T19:29:24.109Z,6.38
2022-09-14T19:31:54.290Z,3.67
2022-09-14T19:34:27.454Z,4.78
2022-09-14T19:36:57.750Z,3.67
2022-09-14T19:39:27.540Z,7.82
2022-09-14T19:41:56.195Z,7.43
2022-09-14T19:44:24.956Z,3.72
2022-09-14T19:46:54.035Z,6.78
2022-09-14T19:49:24.927Z,9.93
2022-09-14T19:51:54.482Z,10.77
2022-09-14T19:54:25.468Z,6.25
2022-09-14T19:56:53.993Z,3.75
2022-09-14T19:59:22.576Z,9.38
2022-09-14T20:01:51.682Z,10.05
2022-09-14T20:04:22.465Z,4.45
2022-09-14T20:06:51.707Z,5.95
2022-09-14T20:09:22.549Z,8.50
2022-09-14T20:11:54.424Z,2.78
2022-09-14T20:14:26.940Z,2.65
2022-09-14T20:16:57.105Z,6.60
2022-09-14T20:19:27.736Z,8.00
2022-09-14T20:21:57.158Z,3.90
2022-09-14T20:24:29.103Z,11.93
2022-09-14T20:27:02.170Z,4.65
2022-09-14T20:29:35.378Z,6.00
2022-09-14T20:32:05.693Z,4.53
2022-09-14T20:34:34.507Z,4.63
2022-09-14T20:37:03.204Z,5.10
2022-09-14T20:39:36.022Z,3.47
2022-09-14T20:42:06.391Z,6.65
2022-09-14T20:44:35.347Z,5.28
2022-09-14T20:47:04.054Z,4.97
2022-09-14T20:49:32.561Z,2.88
2022-09-14T20:52:03.060Z,3.95
2022-09-14T20:54:31.854Z,12.45
2022-09-14T20:59:50.622Z,3.10
2022-09-14T21:00:25.393Z,6.85
2022-09-14T21:02:19.276Z,5.63
2022-09-14T21:04:48.137Z,5.13
2022-09-14T21:07:17.749Z,3.33
2022-09-14T21:09:46.336Z,6.40
2022-09-14T21:12:15.298Z,5.00
2022-09-14T21:14:45.199Z,3.08
2022-09-14T21:17:17.178Z,3.10
2022-09-14T21:19:45.926Z,3.88
2022-09-14T21:22:14.461Z,6.45
2022-09-14T21:24:43.561Z,4.00
2022-09-14T21:27:12.625Z,6.88
2022-09-14T21:29:41.262Z,2.75
2022-09-14T21:32:10.099Z,10.55
2022-09-14T21:34:40.443Z,5.30
2022-09-14T21:37:09.163Z,2.95
2022-09-14T21:39:40.101Z,5.32
2022-09-14T21:42:09.210Z,7.18
2022-09-14T21:44:38.918Z,7.40
2022-09-14T21:47:07.845Z,9.60
2022-09-14T21:49:36.868Z,9.18
2022-09-14T21:52:07.525Z,3.88
2022-09-14T21:54:36.260Z,4.30
2022-09-14T21:57:05.363Z,3.78
2022-09-14T21:59:33.953Z,3.03
2022-09-14T22:02:02.607Z,6.20
2022-09-14T22:04:31.534Z,12.15
2022-09-14T22:07:00.036Z,3.58
2022-09-14T22:09:30.637Z,8.40
2022-09-14T22:11:59.978Z,5.45
2022-09-14T22:14:30.091Z,5.93
2022-09-14T22:16:58.953Z,11.68
2022-09-14T22:19:29.954Z,6.63
2022-09-14T22:21:59.284Z,5.82
2022-09-14T22:24:36.999Z,3.38
2022-09-14T22:27:08.688Z,3.22
2022-09-14T22:29:38.355Z,2.40
2022-09-14T22:32:10.866Z,3.90
2022-09-14T22:34:41.768Z,3.40
2022-09-14T22:37:10.821Z,4.43
2022-09-14T22:39:40.899Z,5.28
2022-09-14T22:42:09.797Z,3.60
2022-09-14T22:44:38.439Z,5.72
2022-09-14T22:47:07.251Z,7.72
2022-09-14T22:49:36.236Z,2.05
2022-09-14T22:52:04.852Z,6.10
2022-09-14T22:54:33.454Z,3.13
2022-09-14T22:57:03.579Z,6.05
2022-09-14T22:59:32.551Z,5.38
2022-09-14T23:02:01.298Z,2.08
2022-09-14T23:04:31.230Z,3.55
2022-09-14T23:07:01.347Z,6.07
2022-09-14T23:09:30.065Z,4.82
2022-09-14T23:11:58.855Z,2.58
2022-09-14T23:14:29.169Z,2.92
2022-09-14T23:16:57.867Z,5.63
2022-09-14T23:19:26.914Z,4.38
2022-09-14T23:21:55.475Z,6.60
2022-09-14T23:24:24.294Z,3.17
2022-09-14T23:26:53.101Z,4.45
2022-09-14T23:29:21.726Z,3.05
2022-09-14T23:31:51.838Z,5.72
2022-09-14T23:34:20.620Z,3.22
2022-09-14T23:36:49.274Z,5.60
2022-09-14T23:39:17.888Z,6.18
2022-09-14T23:41:46.679Z,5.85
2022-09-14T23:44:15.244Z,5.78
2022-09-14T23:46:43.959Z,4.88
2022-09-14T23:49:14.915Z,3.47
2022-09-14T23:51:44.053Z,2.70
2022-09-14T23:54:12.702Z,9.38
2022-09-14T23:56:41.995Z,3.67
2022-09-14T23:59:13.089Z,4.28
